createdAt,value
2023-02-22T00:00:59.840Z,2.37
2023-02-22T00:03:32.408Z,4.12
2023-02-22T00:06:05.211Z,3.72
2023-02-22T00:08:36.836Z,3.85
2023-02-22T00:11:10.141Z,3.15
2023-02-22T00:13:38.548Z,3.28
2023-02-22T00:16:06.573Z,4.93
2023-02-22T00:18:34.033Z,3.55
2023-02-22T00:21:01.739Z,4.00
2023-02-22T00:23:31.744Z,3.92
2023-02-22T00:26:00.421Z,4.30
2023-02-22T00:28:28.141Z,4.90
2023-02-22T00:30:55.892Z,3.80
2023-02-22T00:33:23.618Z,4.28
2023-02-22T00:35:51.405Z,6.62
2023-02-22T00:38:19.351Z,3.92
2023-02-22T00:40:46.860Z,6.55
2023-02-22T00:43:14.946Z,6.00
2023-02-22T00:45:42.624Z,6.62
2023-02-22T00:48:10.782Z,6.40
2023-02-22T00:50:38.529Z,5.37
2023-02-22T00:53:07.438Z,4.95
2023-02-22T00:55:36.388Z,4.20
2023-02-22T00:58:05.203Z,5.05
2023-02-22T01:00:38.642Z,5.05
2023-02-22T01:03:10.677Z,6.05
2023-02-22T01:05:38.411Z,4.60
2023-02-22T01:08:08.264Z,4.40
2023-02-22T01:10:36.575Z,4.55
2023-02-22T01:13:09.175Z,3.85
2023-02-22T01:15:38.723Z,3.58
2023-02-22T01:18:06.686Z,6.25
2023-02-22T01:20:34.612Z,5.25
2023-02-22T01:23:06.383Z,4.53
2023-02-22T01:25:34.784Z,3.97
2023-02-22T01:28:03.645Z,8.18
2023-02-22T01:30:34.559Z,6.10
2023-02-22T01:33:03.990Z,4.37
2023-02-22T01:35:35.920Z,11.02
2023-02-22T01:38:03.439Z,16.70
2023-02-22T01:40:34.461Z,13.43
2023-02-22T01:43:10.952Z,6.53
2023-02-22T01:45:44.654Z,9.40
2023-02-22T01:48:17.447Z,9.98
2023-02-22T01:53:27.157Z,9.60
2023-02-22T01:55:55.074Z,20.80
2023-02-22T01:58:24.841Z,16.60
2023-02-22T02:00:52.287Z,13.23
2023-02-22T02:03:27.684Z,14.68
2023-02-22T02:05:59.098Z,10.27
2023-02-22T02:08:49.884Z,11.73
2023-02-22T02:11:24.665Z,11.77
2023-02-22T02:13:57.431Z,12.98
2023-02-22T02:16:31.206Z,13.35
2023-02-22T02:18:58.599Z,9.25
2023-02-22T02:21:38.606Z,10.43
2023-02-22T02:24:30.178Z,10.38
2023-02-22T02:27:18.962Z,10.20
2023-02-22T02:29:52.567Z,11.45
2023-02-22T02:32:28.035Z,12.32
2023-02-22T02:35:21.567Z,13.30
2023-02-22T02:38:10.894Z,8.25
2023-02-22T02:41:04.211Z,9.02
2023-02-22T02:43:52.004Z,9.75
2023-02-22T02:46:32.094Z,11.18
2023-02-22T02:49:04.781Z,12.85
2023-02-22T02:51:39.028Z,12.55
2023-02-22T02:54:07.788Z,7.22
2023-02-22T02:56:35.631Z,6.55
2023-02-22T02:59:03.025Z,6.45
2023-02-22T03:01:36.180Z,6.57
2023-02-22T03:04:43.416Z,7.22
2023-02-22T03:07:11.103Z,6.53
2023-02-22T03:10:13.182Z,6.10
2023-02-22T03:13:15.174Z,6.55
2023-02-22T03:15:58.116Z,6.45
2023-02-22T03:18:37.003Z,7.35
2023-02-22T03:21:21.180Z,7.18
2023-02-22T03:24:01.423Z,6.68
2023-02-22T03:26:38.130Z,5.03
2023-02-22T03:29:06.944Z,5.43
2023-02-22T03:31:39.559Z,7.25
2023-02-22T03:34:12.010Z,6.70
2023-02-22T03:36:55.962Z,6.47
2023-02-22T03:39:30.879Z,4.87
2023-02-22T03:42:14.193Z,5.00
2023-02-22T03:44:43.593Z,6.65
2023-02-22T03:47:22.666Z,5.40
2023-02-22T03:50:06.934Z,6.18
2023-02-22T03:52:37.846Z,5.20
2023-02-22T03:55:11.130Z,6.35
2023-02-22T04:00:14.492Z,6.72
2023-02-22T04:02:41.970Z,6.50
2023-02-22T04:05:11.807Z,5.35
2023-02-22T04:07:39.766Z,6.15
2023-02-22T04:10:08.667Z,6.53
2023-02-22T04:12:37.947Z,6.18
2023-02-22T04:15:07.045Z,7.53
2023-02-22T04:17:34.947Z,6.18
2023-02-22T04:20:03.928Z,6.75
2023-02-22T04:22:34.326Z,9.40
2023-02-22T04:25:01.873Z,7.20
2023-02-22T04:27:29.565Z,5.65
2023-02-22T04:29:57.252Z,6.28
2023-02-22T04:32:24.849Z,7.65
2023-02-22T04:34:53.135Z,7.70
2023-02-22T04:37:20.540Z,7.05
2023-02-22T04:39:48.004Z,7.47
2023-02-22T04:42:15.836Z,6.62
2023-02-22T04:44:43.265Z,8.35
2023-02-22T04:47:10.723Z,10.10
2023-02-22T04:49:39.155Z,9.57
2023-02-22T04:52:07.110Z,11.18
2023-02-22T04:54:34.592Z,19.90
2023-02-22T04:57:02.733Z,35.28
2023-02-22T04:59:30.189Z,24.42
2023-02-22T05:02:00.727Z,16.52
2023-02-22T05:04:28.398Z,15.93
2023-02-22T05:06:55.852Z,33.85
2023-02-22T05:09:23.403Z,35.35
2023-02-22T05:11:51.117Z,31.85
2023-02-22T05:14:18.510Z,30.52
2023-02-22T05:16:45.955Z,34.70
2023-02-22T05:19:13.830Z,33.83
2023-02-22T05:21:41.363Z,32.72
2023-02-22T05:24:08.750Z,34.28
2023-02-22T05:26:36.382Z,33.20
2023-02-22T05:29:03.736Z,30.90
2023-02-22T05:31:31.161Z,29.15
2023-02-22T05:33:58.852Z,28.20
2023-02-22T05:36:28.038Z,24.12
2023-02-22T05:38:56.273Z,21.27
2023-02-22T05:41:23.982Z,18.92
2023-02-22T05:43:51.590Z,17.67
2023-02-22T05:46:19.058Z,16.15
2023-02-22T05:48:46.772Z,18.50
2023-02-22T05:51:14.345Z,22.02
2023-02-22T05:53:42.562Z,20.02
2023-02-22T05:56:10.328Z,17.08
2023-02-22T05:58:37.735Z,15.63
2023-02-22T06:01:05.345Z,16.87
2023-02-22T06:03:32.974Z,17.45
2023-02-22T06:06:00.322Z,15.52
2023-02-22T06:08:27.720Z,18.62
2023-02-22T06:10:55.356Z,14.98
2023-02-22T06:13:22.787Z,9.50
2023-02-22T06:15:50.285Z,10.40
2023-02-22T06:18:18.144Z,10.52
2023-02-22T06:20:45.488Z,10.15
2023-02-22T06:23:12.866Z,15.38
2023-02-22T06:25:40.574Z,12.35
2023-02-22T06:28:07.958Z,11.88
2023-02-22T06:30:35.512Z,11.27
2023-02-22T06:33:03.308Z,9.88
2023-02-22T06:35:30.712Z,12.07
2023-02-22T06:37:58.081Z,9.60
2023-02-22T06:40:29.492Z,10.57
2023-02-22T06:42:58.410Z,12.85
2023-02-22T06:45:26.460Z,11.40
2023-02-22T06:47:53.998Z,18.05
2023-02-22T06:50:31.491Z,13.30
2023-02-22T06:52:59.197Z,11.93
2023-02-22T06:55:28.628Z,12.63
2023-02-22T06:57:56.079Z,12.32
2023-02-22T07:00:25.923Z,12.73
2023-02-22T07:02:54.209Z,12.50
2023-02-22T07:05:22.863Z,12.85
2023-02-22T07:07:52.687Z,13.68
2023-02-22T07:10:29.695Z,12.90
2023-02-22T07:12:57.512Z,9.27
2023-02-22T07:15:26.455Z,9.05
2023-02-22T07:17:53.960Z,9.30
2023-02-22T07:20:22.621Z,7.95
2023-02-22T07:22:50.644Z,17.40
2023-02-22T07:25:19.326Z,8.05
2023-02-22T07:27:47.361Z,11.68
2023-02-22T07:30:19.661Z,8.07
2023-02-22T07:32:47.501Z,6.37
2023-02-22T07:35:20.609Z,8.73
2023-02-22T07:37:48.342Z,10.10
2023-02-22T07:40:16.818Z,9.77
2023-02-22T07:43:07.057Z,9.85
2023-02-22T07:45:35.643Z,9.15
2023-02-22T07:48:04.819Z,8.65
2023-02-22T07:50:33.462Z,8.35
2023-02-22T07:53:03.290Z,7.50
2023-02-22T07:55:32.397Z,9.75
2023-02-22T07:58:01.970Z,8.45
2023-02-22T08:00:35.119Z,6.78
2023-02-22T08:03:05.222Z,11.02
2023-02-22T08:05:33.483Z,9.05
2023-02-22T08:08:01.682Z,7.80
2023-02-22T08:10:29.469Z,8.68
2023-02-22T08:12:57.057Z,6.35
2023-02-22T08:15:25.492Z,10.05
2023-02-22T08:17:53.651Z,10.20
2023-02-22T08:20:22.097Z,7.55
2023-02-22T08:22:50.088Z,9.05
2023-02-22T08:25:20.301Z,8.30
2023-02-22T08:27:47.984Z,7.70
2023-02-22T08:30:18.490Z,7.40
2023-02-22T08:32:47.562Z,8.93
2023-02-22T08:35:16.780Z,7.28
2023-02-22T08:37:56.265Z,10.23
2023-02-22T08:40:25.810Z,9.75
2023-02-22T08:42:53.764Z,9.40
2023-02-22T08:45:21.146Z,9.75
2023-02-22T08:47:49.016Z,7.97
2023-02-22T08:50:22.703Z,8.73
2023-02-22T08:52:52.214Z,9.10
2023-02-22T08:55:23.958Z,9.10
2023-02-22T08:57:51.729Z,9.50
2023-02-22T09:00:20.714Z,8.75
2023-02-22T09:02:48.229Z,8.30
2023-02-22T09:05:17.048Z,7.70
2023-02-22T09:07:45.122Z,8.27
2023-02-22T09:10:18.449Z,8.52
2023-02-22T09:12:46.296Z,7.68
2023-02-22T09:15:14.884Z,7.57
2023-02-22T09:17:42.292Z,7.20
2023-02-22T09:20:12.294Z,8.88
2023-02-22T09:22:40.226Z,7.87
2023-02-22T09:25:16.178Z,7.30
2023-02-22T09:27:47.900Z,6.90
2023-02-22T09:30:23.753Z,8.00
2023-02-22T09:32:54.846Z,6.82
2023-02-22T09:35:27.420Z,7.20
2023-02-22T09:37:57.435Z,6.57
2023-02-22T09:40:30.457Z,5.90
2023-02-22T09:43:04.408Z,6.78
2023-02-22T09:45:36.928Z,6.62
2023-02-22T09:48:21.179Z,7.62
2023-02-22T09:50:51.494Z,7.00
2023-02-22T09:53:31.789Z,10.77
2023-02-22T09:56:07.208Z,8.18
2023-02-22T09:58:41.833Z,8.88
2023-02-22T10:01:26.909Z,9.65
2023-02-22T10:04:05.966Z,7.75
2023-02-22T10:06:34.822Z,8.40
2023-02-22T10:09:08.014Z,6.80
2023-02-22T10:11:57.637Z,7.43
2023-02-22T10:14:44.146Z,7.35
2023-02-22T10:17:30.453Z,9.88
2023-02-22T10:20:22.388Z,7.28
2023-02-22T10:22:56.671Z,8.75
2023-02-22T10:25:27.290Z,10.20
2023-02-22T10:28:06.375Z,8.25
2023-02-22T10:30:37.433Z,9.77
2023-02-22T10:33:17.682Z,8.00
2023-02-22T10:35:47.061Z,8.05
2023-02-22T10:38:20.204Z,10.23
2023-02-22T10:40:57.038Z,9.05
2023-02-22T10:43:25.777Z,11.18
2023-02-22T10:45:55.988Z,9.50
2023-02-22T10:48:25.313Z,9.25
2023-02-22T10:50:54.808Z,9.95
2023-02-22T10:53:23.132Z,8.10
2023-02-22T10:56:22.073Z,8.13
2023-02-22T10:58:59.559Z,8.77
2023-02-22T11:01:28.878Z,9.95
2023-02-22T11:04:08.828Z,7.62
2023-02-22T11:06:36.781Z,8.50
2023-02-22T11:09:17.914Z,8.68
2023-02-22T11:11:47.526Z,7.75
2023-02-22T11:14:29.441Z,9.77
2023-02-22T11:16:58.893Z,12.60
2023-02-22T11:19:31.690Z,10.88
2023-02-22T11:22:05.231Z,13.60
2023-02-22T11:24:48.400Z,13.18
2023-02-22T11:27:38.605Z,16.75
2023-02-22T11:30:30.435Z,44.40
2023-02-22T11:33:03.407Z,27.45
2023-02-22T11:35:38.040Z,20.55
2023-02-22T11:38:21.033Z,15.30
2023-02-22T11:41:14.805Z,15.70
2023-02-22T11:43:47.384Z,15.55
2023-02-22T11:46:18.066Z,15.10
2023-02-22T11:49:18.130Z,14.55
2023-02-22T11:52:16.968Z,12.15
2023-02-22T11:55:04.556Z,13.50
2023-02-22T11:58:08.317Z,12.45
2023-02-22T12:01:00.593Z,14.85
2023-02-22T12:03:34.273Z,14.77
2023-02-22T12:06:10.860Z,11.60
2023-02-22T12:09:04.359Z,13.10
2023-02-22T12:11:54.910Z,12.30
2023-02-22T12:14:43.581Z,14.60
2023-02-22T12:17:23.848Z,9.85
2023-02-22T12:19:55.500Z,12.27
2023-02-22T12:22:27.384Z,12.00
2023-02-22T12:27:41.303Z,10.82
2023-02-22T12:30:18.589Z,13.85
2023-02-22T12:32:53.333Z,12.70
2023-02-22T12:35:24.552Z,10.82
2023-02-22T12:38:04.686Z,10.80
2023-02-22T12:40:37.756Z,10.95
2023-02-22T12:43:20.684Z,8.90
2023-02-22T12:46:03.077Z,11.15
2023-02-22T12:49:01.043Z,8.40
2023-02-22T12:51:37.741Z,9.23
2023-02-22T12:54:14.526Z,5.60
2023-02-22T12:56:48.932Z,6.30
2023-02-22T12:59:25.510Z,5.15
2023-02-22T13:02:14.683Z,9.27
2023-02-22T13:04:42.110Z,9.25
2023-02-22T13:07:38.331Z,4.18
2023-02-22T13:10:24.598Z,4.07
2023-02-22T13:13:15.276Z,2.87
2023-02-22T13:16:16.012Z,3.17
2023-02-22T13:18:58.056Z,2.95
2023-02-22T13:21:43.735Z,3.33
2023-02-22T13:24:21.269Z,4.18
2023-02-22T13:27:04.277Z,6.90
2023-02-22T13:29:38.835Z,7.15
2023-02-22T13:32:28.135Z,6.07
2023-02-22T13:35:17.541Z,8.50
2023-02-22T13:38:15.788Z,8.02
2023-02-22T13:41:15.096Z,12.10
2023-02-22T13:43:59.992Z,11.48
2023-02-22T13:46:36.839Z,7.43
2023-02-22T13:49:25.810Z,8.82
2023-02-22T13:52:02.670Z,7.97
2023-02-22T13:54:39.934Z,8.02
2023-02-22T13:57:25.780Z,6.18
2023-02-22T14:00:20.710Z,6.65
2023-02-22T14:03:40.485Z,6.75
2023-02-22T14:06:10.486Z,6.65
2023-02-22T14:08:41.290Z,9.45
2023-02-22T14:11:15.297Z,8.45
2023-02-22T14:13:55.581Z,6.12
2023-02-22T14:16:25.064Z,5.50
2023-02-22T14:19:06.578Z,4.72
2023-02-22T14:21:35.174Z,5.18
2023-02-22T14:24:16.235Z,5.22
2023-02-22T14:26:54.617Z,6.82
2023-02-22T14:29:22.353Z,4.05
2023-02-22T14:31:52.797Z,5.82
2023-02-22T14:34:41.562Z,5.00
2023-02-22T14:37:20.049Z,4.97
2023-02-22T14:40:12.744Z,4.87
2023-02-22T14:42:46.106Z,5.93
2023-02-22T14:45:28.569Z,4.57
2023-02-22T14:48:16.438Z,3.95
2023-02-22T14:50:51.369Z,4.70
2023-02-22T14:53:40.571Z,4.10
2023-02-22T14:56:29.834Z,6.03
2023-02-22T14:59:13.437Z,6.32
2023-02-22T15:01:52.728Z,5.20
2023-02-22T15:04:28.417Z,4.72
2023-02-22T15:06:57.628Z,6.80
2023-02-22T15:09:30.557Z,7.97
2023-02-22T15:12:05.244Z,8.38
2023-02-22T15:14:37.802Z,12.25
2023-02-22T15:17:21.261Z,9.43
2023-02-22T15:19:49.779Z,7.18
2023-02-22T15:22:24.770Z,12.48
2023-02-22T15:25:00.760Z,8.05
2023-02-22T15:27:28.775Z,10.50
2023-02-22T15:30:04.817Z,8.82
2023-02-22T15:32:38.710Z,10.40
2023-02-22T15:35:27.149Z,16.77
2023-02-22T15:38:21.609Z,12.95
2023-02-22T15:41:00.167Z,10.48
2023-02-22T15:43:28.588Z,9.98
2023-02-22T15:45:56.841Z,10.73
2023-02-22T15:48:26.725Z,12.40
2023-02-22T15:51:07.064Z,10.95
2023-02-22T15:53:39.891Z,12.55
2023-02-22T15:56:11.392Z,12.77
2023-02-22T15:58:39.329Z,11.45
2023-02-22T16:01:09.247Z,7.60
2023-02-22T16:03:45.924Z,12.50
2023-02-22T16:06:33.438Z,17.92
2023-02-22T16:09:11.306Z,14.45
2023-02-22T16:11:43.381Z,8.88
2023-02-22T16:14:37.237Z,13.45
2023-02-22T16:17:41.189Z,12.57
2023-02-22T16:20:14.346Z,221.73
2023-02-22T16:22:49.095Z,377.07
2023-02-22T16:25:21.395Z,105.30
2023-02-22T16:30:39.436Z,52.65
2023-02-22T16:33:13.407Z,73.80
2023-02-22T16:35:48.490Z,65.07
2023-02-22T16:38:17.036Z,60.90
2023-02-22T16:40:58.431Z,87.90
2023-02-22T16:43:29.765Z,50.30
2023-02-22T16:45:58.139Z,26.73
2023-02-22T16:48:27.083Z,23.35
2023-02-22T16:50:57.047Z,22.45
2023-02-22T16:53:26.905Z,18.42
2023-02-22T16:55:58.093Z,20.48
2023-02-22T16:58:29.273Z,20.07
2023-02-22T17:00:57.435Z,23.45
2023-02-22T17:03:25.574Z,24.27
2023-02-22T17:05:53.266Z,26.30
2023-02-22T17:08:20.967Z,23.50
2023-02-22T17:10:51.488Z,24.05
2023-02-22T17:13:26.393Z,22.07
2023-02-22T17:15:56.391Z,20.90
2023-02-22T17:18:28.411Z,21.95
2023-02-22T17:20:56.086Z,24.60
2023-02-22T17:23:24.419Z,21.20
2023-02-22T17:25:54.070Z,22.08
2023-02-22T17:28:23.685Z,23.12
2023-02-22T17:30:52.720Z,25.25
2023-02-22T17:33:22.761Z,21.58
2023-02-22T17:35:50.265Z,27.20
2023-02-22T17:38:18.510Z,24.25
2023-02-22T17:40:54.712Z,26.80
2023-02-22T17:43:23.108Z,24.77
2023-02-22T17:45:50.700Z,21.83
2023-02-22T17:48:18.699Z,21.80
2023-02-22T17:50:47.836Z,20.83
2023-02-22T17:53:18.112Z,23.75
2023-02-22T17:55:45.782Z,20.90
2023-02-22T17:58:14.684Z,22.67
2023-02-22T18:00:45.548Z,20.23
2023-02-22T18:03:16.385Z,24.25
2023-02-22T18:05:46.329Z,21.45
2023-02-22T18:08:15.010Z,22.30
2023-02-22T18:10:43.775Z,20.95
2023-02-22T18:13:17.894Z,20.20
2023-02-22T18:15:46.517Z,18.40
2023-02-22T18:18:16.159Z,24.45
2023-02-22T18:20:51.358Z,22.73
2023-02-22T18:23:22.985Z,25.30
2023-02-22T18:26:09.247Z,29.40
2023-02-22T18:28:38.699Z,22.05
2023-02-22T18:31:08.539Z,32.83
2023-02-22T18:33:36.157Z,41.37
2023-02-22T18:36:04.618Z,51.70
2023-02-22T18:38:32.054Z,54.58
2023-02-22T18:41:04.844Z,57.72
2023-02-22T18:43:36.916Z,53.28
2023-02-22T18:46:12.180Z,45.45
2023-02-22T18:48:40.619Z,36.47
2023-02-22T18:51:10.717Z,50.60
2023-02-22T18:53:40.812Z,72.00
2023-02-22T18:56:15.180Z,64.72
2023-02-22T18:58:45.979Z,69.07
2023-02-22T19:01:18.408Z,68.12
2023-02-22T19:03:48.828Z,57.33
2023-02-22T19:06:17.785Z,34.42
2023-02-22T19:08:46.139Z,32.30
2023-02-22T19:11:17.922Z,32.10
2023-02-22T19:13:46.523Z,29.58
2023-02-22T19:16:15.196Z,29.12
2023-02-22T19:18:44.124Z,25.17
2023-02-22T19:21:13.939Z,23.95
2023-02-22T19:23:45.640Z,21.92
2023-02-22T19:26:18.814Z,23.58
2023-02-22T19:28:47.355Z,22.08
2023-02-22T19:31:46.225Z,23.15
2023-02-22T19:34:15.380Z,21.70
2023-02-22T19:36:46.235Z,22.37
2023-02-22T19:39:14.740Z,24.05
2023-02-22T19:41:42.696Z,26.65
2023-02-22T19:44:10.622Z,22.45
2023-02-22T19:46:38.509Z,20.08
2023-02-22T19:49:07.173Z,24.25
2023-02-22T19:51:34.838Z,27.83
2023-02-22T19:54:04.953Z,24.35
2023-02-22T19:56:35.123Z,21.90
2023-02-22T19:59:13.561Z,24.50
2023-02-22T20:01:44.141Z,26.05
2023-02-22T20:04:18.099Z,20.62
2023-02-22T20:06:46.242Z,19.52
2023-02-22T20:09:18.869Z,23.52
2023-02-22T20:14:23.438Z,28.35
2023-02-22T20:16:51.882Z,22.27
2023-02-22T20:19:21.042Z,18.62
2023-02-22T20:21:49.054Z,20.95
2023-02-22T20:24:18.300Z,21.87
2023-02-22T20:26:46.826Z,20.70
2023-02-22T20:29:15.190Z,27.55
2023-02-22T20:31:43.462Z,20.42
2023-02-22T20:34:11.629Z,25.35
2023-02-22T20:36:41.384Z,21.98
2023-02-22T20:39:13.326Z,20.27
2023-02-22T20:41:42.836Z,28.30
2023-02-22T20:44:13.505Z,23.60
2023-02-22T20:46:41.715Z,19.25
2023-02-22T20:49:11.352Z,19.65
2023-02-22T20:51:42.112Z,18.83
2023-02-22T20:54:12.144Z,20.00
2023-02-22T20:56:42.146Z,18.50
2023-02-22T20:59:14.899Z,20.88
2023-02-22T21:01:42.312Z,17.80
2023-02-22T21:04:10.700Z,18.52
2023-02-22T21:06:39.641Z,19.52
2023-02-22T21:09:10.301Z,14.35
2023-02-22T21:11:38.917Z,17.23
2023-02-22T21:14:06.341Z,19.37
2023-02-22T21:16:36.195Z,18.30
2023-02-22T21:19:07.553Z,17.48
2023-02-22T21:21:35.589Z,16.25
2023-02-22T21:24:03.073Z,18.83
2023-02-22T21:26:32.753Z,17.67
2023-02-22T21:29:03.312Z,15.20
2023-02-22T21:31:32.048Z,19.30
2023-02-22T21:34:00.356Z,18.20
2023-02-22T21:36:28.388Z,18.17
2023-02-22T21:38:58.716Z,12.65
2023-02-22T21:41:28.840Z,20.00
2023-02-22T21:43:57.957Z,20.83
2023-02-22T21:46:27.548Z,16.87
2023-02-22T21:48:58.618Z,15.73
2023-02-22T21:51:31.924Z,16.80
2023-02-22T21:54:05.050Z,14.50
2023-02-22T21:56:36.305Z,15.48
2023-02-22T21:59:11.889Z,16.17
2023-02-22T22:01:46.981Z,19.75
2023-02-22T22:04:19.268Z,17.35
2023-02-22T22:06:49.040Z,17.55
2023-02-22T22:09:20.363Z,20.12
2023-02-22T22:11:52.022Z,18.40
2023-02-22T22:14:23.063Z,21.52
2023-02-22T22:16:53.425Z,19.33
2023-02-22T22:19:21.096Z,14.40
2023-02-22T22:21:50.124Z,16.87
2023-02-22T22:24:20.462Z,19.37
2023-02-22T22:26:54.642Z,16.25
2023-02-22T22:29:24.395Z,17.75
2023-02-22T22:31:52.555Z,15.23
2023-02-22T22:34:20.364Z,17.05
2023-02-22T22:36:47.941Z,18.90
2023-02-22T22:39:16.113Z,16.70
2023-02-22T22:41:44.312Z,21.60
2023-02-22T22:44:16.104Z,20.37
2023-02-22T22:46:49.091Z,21.02
2023-02-22T22:49:16.972Z,18.35
2023-02-22T22:51:47.348Z,18.02
2023-02-22T22:54:14.786Z,21.23
2023-02-22T22:56:42.188Z,22.83
2023-02-22T22:59:10.691Z,19.15
2023-02-22T23:01:40.673Z,18.23
2023-02-22T23:04:10.812Z,13.90
2023-02-22T23:06:41.061Z,18.87
2023-02-22T23:09:18.716Z,17.95
2023-02-22T23:11:50.627Z,16.23
2023-02-22T23:14:32.131Z,19.67
2023-02-22T23:17:03.257Z,17.47
2023-02-22T23:19:32.569Z,27.02
2023-02-22T23:22:01.388Z,22.50
2023-02-22T23:24:28.818Z,19.37
2023-02-22T23:27:07.137Z,16.42
2023-02-22T23:29:38.093Z,17.62
2023-02-22T23:32:06.209Z,15.88
2023-02-22T23:34:35.801Z,13.38
2023-02-22T23:37:03.731Z,19.15
2023-02-22T23:39:31.097Z,16.75
2023-02-22T23:41:59.238Z,15.27
2023-02-22T23:44:28.106Z,18.60
2023-02-22T23:46:55.896Z,16.30
2023-02-22T23:49:26.300Z,17.35
2023-02-22T23:51:54.276Z,16.15
2023-02-22T23:54:24.498Z,16.20
2023-02-22T23:56:58.511Z,17.70
2023-02-22T23:59:27.253Z,18.52
